createdAt,value
2022-08-28T00:00:10.217Z,85.69
2022-08-28T00:02:36.753Z,85.77
2022-08-28T00:05:03.910Z,85.99
2022-08-28T00:07:30.427Z,85.91
2022-08-28T00:09:56.841Z,85.74
2022-08-28T00:12:23.472Z,85.81
2022-08-28T00:14:49.923Z,86.19
2022-08-28T00:17:16.409Z,86.43
2022-08-28T00:19:42.903Z,86.44
2022-08-28T00:22:09.526Z,86.46
2022-08-28T00:24:36.840Z,86.32
2022-08-28T00:27:22.005Z,86.90
2022-08-28T00:29:48.472Z,86.81
2022-08-28T00:32:14.964Z,86.77
2022-08-28T00:34:41.403Z,86.48
2022-08-28T00:37:07.910Z,87.17
2022-08-28T00:39:34.658Z,87.15
2022-08-28T00:42:01.185Z,86.94
2022-08-28T00:44:28.982Z,86.62
2022-08-28T00:46:57.617Z,86.85
2022-08-28T00:49:27.862Z,86.35
2022-08-28T00:52:15.946Z,86.48
2022-08-28T00:54:59.492Z,86.99
2022-08-28T00:57:40.413Z,86.98
2022-08-28T01:00:10.876Z,86.51
2022-08-28T01:02:37.353Z,86.78
2022-08-28T01:05:09.506Z,86.59
2022-08-28T01:07:37.332Z,86.66
2022-08-28T01:10:07.509Z,86.74
2022-08-28T01:12:34.971Z,86.69
2022-08-28T01:15:09.282Z,86.44
2022-08-28T01:17:36.500Z,86.47
2022-08-28T01:20:11.224Z,86.13
2022-08-28T01:22:44.371Z,86.46
2022-08-28T01:25:14.082Z,86.18
2022-08-28T01:27:41.989Z,86.18
2022-08-28T01:30:12.613Z,86.41
2022-08-28T01:32:43.574Z,86.81
2022-08-28T01:35:18.774Z,86.54
2022-08-28T01:37:45.906Z,85.68
2022-08-28T01:40:17.529Z,85.18
2022-08-28T01:42:44.731Z,84.58
2022-08-28T01:45:14.660Z,83.86
2022-08-28T01:47:43.584Z,84.53
2022-08-28T01:50:14.413Z,84.05
2022-08-28T01:52:41.616Z,83.76
2022-08-28T01:55:11.102Z,83.62
2022-08-28T01:57:44.830Z,83.95
2022-08-28T02:00:12.227Z,84.05
2022-08-28T02:02:39.845Z,83.48
2022-08-28T02:05:08.163Z,83.19
2022-08-28T02:07:35.152Z,83.13
2022-08-28T02:10:02.807Z,83.60
2022-08-28T02:12:29.970Z,84.31
2022-08-28T02:14:56.424Z,84.34
2022-08-28T02:17:22.873Z,84.43
2022-08-28T02:19:49.331Z,84.69
2022-08-28T02:22:15.752Z,85.32
2022-08-28T02:24:42.201Z,85.84
2022-08-28T02:27:09.025Z,86.10
2022-08-28T02:29:35.468Z,86.36
2022-08-28T02:32:01.994Z,86.16
2022-08-28T02:34:28.432Z,85.27
2022-08-28T02:36:56.145Z,85.60
2022-08-28T02:39:22.536Z,85.75
2022-08-28T02:41:48.930Z,86.24
2022-08-28T02:44:15.383Z,86.13
2022-08-28T02:46:41.986Z,86.78
2022-08-28T02:49:08.451Z,86.41
2022-08-28T02:51:35.168Z,86.39
2022-08-28T02:54:02.418Z,86.78
2022-08-28T02:56:29.222Z,87.16
2022-08-28T02:58:55.673Z,87.05
2022-08-28T03:01:23.861Z,87.34
2022-08-28T03:03:50.289Z,87.16
2022-08-28T03:06:16.850Z,87.37
2022-08-28T03:08:44.354Z,87.60
2022-08-28T03:11:11.878Z,86.50
2022-08-28T03:13:38.749Z,86.13
2022-08-28T03:16:05.686Z,85.67
2022-08-28T03:18:33.099Z,86.01
2022-08-28T03:21:00.158Z,86.30
2022-08-28T03:23:26.897Z,86.42
2022-08-28T03:25:57.146Z,86.07
2022-08-28T03:28:25.927Z,85.81
2022-08-28T03:30:52.632Z,86.06
2022-08-28T03:33:19.241Z,86.29
2022-08-28T03:35:45.733Z,87.05
2022-08-28T03:38:12.819Z,86.84
2022-08-28T03:40:42.441Z,87.71
2022-08-28T03:43:11.465Z,87.84
2022-08-28T03:45:38.590Z,86.74
2022-08-28T03:48:05.103Z,87.05
2022-08-28T03:50:31.515Z,86.59
2022-08-28T03:52:59.209Z,86.72
2022-08-28T03:55:26.321Z,86.92
2022-08-28T03:57:52.780Z,86.70
2022-08-28T04:00:20.343Z,85.64
2022-08-28T04:02:46.803Z,87.20
2022-08-28T04:05:15.641Z,86.92
2022-08-28T04:07:42.043Z,87.44
2022-08-28T04:10:08.988Z,86.92
2022-08-28T04:12:37.013Z,86.33
2022-08-28T04:15:05.692Z,86.12
2022-08-28T04:17:33.481Z,86.82
2022-08-28T04:19:59.925Z,87.92
2022-08-28T04:22:26.366Z,87.99
2022-08-28T04:24:54.530Z,87.56
2022-08-28T04:27:20.972Z,87.31
2022-08-28T04:29:49.042Z,87.42
2022-08-28T04:32:15.660Z,87.79
2022-08-28T04:34:42.104Z,88.52
2022-08-28T04:37:08.564Z,88.77
2022-08-28T04:39:35.257Z,88.78
2022-08-28T04:42:01.701Z,88.20
2022-08-28T04:44:28.332Z,88.13
2022-08-28T04:46:54.819Z,88.21
2022-08-28T04:49:22.809Z,87.97
2022-08-28T04:51:52.446Z,87.79
2022-08-28T04:54:19.003Z,87.77
2022-08-28T04:56:46.234Z,86.85
2022-08-28T04:59:12.991Z,86.86
2022-08-28T05:01:41.907Z,86.64
2022-08-28T05:04:09.590Z,86.75
2022-08-28T05:06:36.097Z,86.23
2022-08-28T05:09:04.301Z,86.24
2022-08-28T05:11:33.301Z,86.55
2022-08-28T05:14:04.158Z,85.75
2022-08-28T05:16:30.822Z,86.17
2022-08-28T05:19:00.557Z,86.28
2022-08-28T05:21:28.208Z,85.93
2022-08-28T05:23:57.635Z,86.44
2022-08-28T05:26:27.067Z,85.96
2022-08-28T05:28:55.983Z,85.81
2022-08-28T05:31:24.079Z,85.72
2022-08-28T05:33:51.765Z,86.20
2022-08-28T05:36:22.015Z,85.98
2022-08-28T05:38:49.605Z,85.50
2022-08-28T05:41:20.963Z,85.33
2022-08-28T05:43:47.841Z,85.01
2022-08-28T05:46:16.146Z,85.36
2022-08-28T05:48:42.915Z,85.15
2022-08-28T05:51:15.663Z,84.94
2022-08-28T05:53:43.998Z,84.22
2022-08-28T05:56:13.215Z,83.76
2022-08-28T05:58:40.369Z,83.38
2022-08-28T06:01:11.382Z,83.68
2022-08-28T06:03:39.636Z,82.89
2022-08-28T06:06:07.373Z,83.28
2022-08-28T06:08:34.380Z,82.58
2022-08-28T06:11:02.874Z,82.76
2022-08-28T06:13:30.679Z,82.33
2022-08-28T06:15:57.907Z,82.07
2022-08-28T06:18:25.726Z,81.37
2022-08-28T06:20:53.318Z,82.10
2022-08-28T06:23:23.939Z,81.98
2022-08-28T06:25:51.952Z,81.37
2022-08-28T06:28:22.268Z,81.28
2022-08-28T06:31:15.750Z,80.59
2022-08-28T06:33:37.723Z,80.25
2022-08-28T06:36:05.489Z,80.79
2022-08-28T06:38:31.909Z,80.14
2022-08-28T06:40:58.977Z,80.10
2022-08-28T06:43:28.450Z,80.12
2022-08-28T06:45:56.790Z,79.61
2022-08-28T06:48:27.442Z,79.92
2022-08-28T06:50:55.023Z,79.93
2022-08-28T06:53:24.530Z,79.85
2022-08-28T06:55:57.322Z,79.90
2022-08-28T06:58:24.616Z,79.97
2022-08-28T07:00:59.626Z,79.36
2022-08-28T07:03:30.009Z,79.27
2022-08-28T07:06:01.827Z,79.45
2022-08-28T07:08:29.448Z,79.66
2022-08-28T07:10:56.422Z,79.15
2022-08-28T07:13:23.366Z,78.55
2022-08-28T07:15:50.015Z,78.39
2022-08-28T07:18:17.607Z,78.46
2022-08-28T07:20:45.060Z,78.32
2022-08-28T07:23:11.587Z,78.45
2022-08-28T07:25:41.926Z,77.66
2022-08-28T07:28:09.090Z,77.35
2022-08-28T07:30:35.703Z,76.56
2022-08-28T07:33:02.329Z,77.21
2022-08-28T07:35:28.844Z,76.81
2022-08-28T07:37:55.264Z,76.21
2022-08-28T07:40:22.309Z,75.68
2022-08-28T07:43:07.439Z,75.25
2022-08-28T07:45:35.388Z,74.01
2022-08-28T07:48:11.285Z,73.73
2022-08-28T07:50:38.115Z,73.63
2022-08-28T07:53:08.068Z,73.59
2022-08-28T07:55:34.453Z,74.00
2022-08-28T07:58:02.185Z,72.94
2022-08-28T08:00:28.619Z,72.63
2022-08-28T08:02:55.017Z,73.21
2022-08-28T08:05:21.707Z,73.37
2022-08-28T08:07:48.143Z,73.73
2022-08-28T08:10:14.862Z,73.18
2022-08-28T08:12:47.090Z,72.62
2022-08-28T08:15:13.603Z,73.91
2022-08-28T08:17:40.334Z,73.06
2022-08-28T08:20:08.422Z,71.71
2022-08-28T08:22:35.575Z,71.46
2022-08-28T08:25:04.837Z,71.26
2022-08-28T08:27:38.808Z,72.24
2022-08-28T08:30:08.126Z,71.99
2022-08-28T08:32:34.597Z,72.49
2022-08-28T08:35:01.026Z,72.76
2022-08-28T08:37:27.487Z,73.32
2022-08-28T08:39:54.735Z,72.31
2022-08-28T08:42:25.488Z,71.83
2022-08-28T08:44:55.323Z,72.32
2022-08-28T08:47:30.939Z,72.06
2022-08-28T08:50:00.235Z,72.17
2022-08-28T08:52:51.226Z,70.86
2022-08-28T08:55:28.790Z,69.83
2022-08-28T08:58:04.135Z,69.54
2022-08-28T09:00:36.779Z,69.83
2022-08-28T09:03:23.558Z,69.92
2022-08-28T09:06:01.987Z,69.48
2022-08-28T09:08:40.673Z,69.63
2022-08-28T09:11:29.571Z,69.16
2022-08-28T09:14:09.437Z,68.24
2022-08-28T09:16:39.805Z,68.35
2022-08-28T09:19:09.572Z,67.78
2022-08-28T09:21:41.214Z,66.70
2022-08-28T09:24:21.457Z,66.13
2022-08-28T09:27:01.011Z,64.78
2022-08-28T09:29:31.807Z,65.29
2022-08-28T09:31:58.799Z,65.58
2022-08-28T09:34:38.565Z,64.15
2022-08-28T09:37:08.352Z,63.66
2022-08-28T09:39:37.850Z,62.82
2022-08-28T09:42:36.369Z,62.16
2022-08-28T09:45:20.543Z,61.25
2022-08-28T09:48:00.572Z,61.39
2022-08-28T09:50:38.609Z,60.99
2022-08-28T09:53:13.708Z,60.51
2022-08-28T09:56:02.159Z,59.94
2022-08-28T09:58:41.776Z,59.76
2022-08-28T10:01:31.359Z,59.39
2022-08-28T10:04:22.809Z,58.90
2022-08-28T10:07:00.716Z,59.53
2022-08-28T10:10:21.001Z,58.99
2022-08-28T10:12:53.533Z,58.69
2022-08-28T10:15:30.485Z,58.66
2022-08-28T10:18:07.666Z,56.81
2022-08-28T10:20:37.098Z,58.12
2022-08-28T10:23:27.325Z,57.57
2022-08-28T10:26:04.063Z,57.99
2022-08-28T10:28:58.588Z,58.24
2022-08-28T10:31:34.412Z,58.23
2022-08-28T10:34:14.634Z,58.84
2022-08-28T10:36:44.452Z,58.22
2022-08-28T10:39:38.694Z,58.44
2022-08-28T10:42:06.439Z,57.95
2022-08-28T10:44:50.707Z,57.03
2022-08-28T10:47:21.893Z,55.31
2022-08-28T10:49:53.392Z,54.91
2022-08-28T10:52:32.340Z,53.94
2022-08-28T10:55:07.309Z,53.41
2022-08-28T10:57:39.653Z,53.24
2022-08-28T11:00:16.607Z,53.53
2022-08-28T11:02:49.894Z,54.65
2022-08-28T11:05:21.529Z,54.32
2022-08-28T11:07:51.703Z,53.64
2022-08-28T11:10:45.085Z,53.91
2022-08-28T11:13:11.728Z,54.50
2022-08-28T11:15:41.650Z,53.29
2022-08-28T11:18:14.194Z,52.73
2022-08-28T11:20:43.454Z,51.32
2022-08-28T11:23:17.243Z,51.66
2022-08-28T11:25:54.621Z,52.87
2022-08-28T11:28:24.005Z,51.47
2022-08-28T11:31:05.798Z,51.23
2022-08-28T11:33:41.216Z,52.40
2022-08-28T11:36:19.718Z,51.70
2022-08-28T11:38:49.317Z,52.04
2022-08-28T11:41:26.556Z,52.05
2022-08-28T11:44:08.176Z,51.50
2022-08-28T11:46:36.411Z,51.89
2022-08-28T11:49:05.901Z,51.36
2022-08-28T11:51:56.165Z,51.75
2022-08-28T11:54:42.581Z,50.41
2022-08-28T11:57:23.773Z,49.77
2022-08-28T12:00:20.398Z,49.05
2022-08-28T12:02:56.364Z,50.33
2022-08-28T12:05:31.827Z,50.04
2022-08-28T12:08:02.354Z,50.25
2022-08-28T12:10:30.491Z,49.96
2022-08-28T12:13:08.022Z,50.13
2022-08-28T12:15:34.577Z,49.74
2022-08-28T12:18:10.389Z,50.03
2022-08-28T12:20:44.224Z,49.36
2022-08-28T12:23:38.329Z,49.32
2022-08-28T12:26:09.983Z,50.70
2022-08-28T12:28:45.392Z,50.68
2022-08-28T12:31:50.307Z,50.38
2022-08-28T12:34:38.207Z,50.52
2022-08-28T12:37:07.490Z,49.87
2022-08-28T12:39:34.188Z,50.47
2022-08-28T12:42:03.418Z,50.28
2022-08-28T12:44:32.571Z,49.78
2022-08-28T12:46:59.482Z,48.81
2022-08-28T12:49:34.768Z,49.23
2022-08-28T12:52:17.844Z,48.33
2022-08-28T12:54:49.636Z,48.75
2022-08-28T12:57:21.474Z,48.17
2022-08-28T12:59:51.419Z,47.50
2022-08-28T13:02:28.264Z,46.41
2022-08-28T13:04:57.571Z,47.05
2022-08-28T13:07:30.220Z,47.44
2022-08-28T13:10:00.527Z,47.51
2022-08-28T13:12:54.391Z,47.91
2022-08-28T13:15:43.211Z,47.86
2022-08-28T13:18:10.185Z,48.06
2022-08-28T13:20:38.876Z,47.19
2022-08-28T13:23:05.679Z,47.28
2022-08-28T13:25:35.694Z,46.73
2022-08-28T13:28:11.205Z,47.08
2022-08-28T13:30:37.768Z,47.00
2022-08-28T13:33:18.201Z,47.07
2022-08-28T13:35:45.199Z,47.23
2022-08-28T13:38:13.743Z,48.18
2022-08-28T13:41:02.893Z,48.04
2022-08-28T13:43:41.978Z,48.04
2022-08-28T13:46:08.489Z,47.97
2022-08-28T13:48:34.915Z,48.13
2022-08-28T13:51:11.232Z,47.43
2022-08-28T13:53:38.904Z,46.87
2022-08-28T13:56:05.644Z,46.89
2022-08-28T13:58:32.352Z,46.70
2022-08-28T14:00:59.368Z,47.23
2022-08-28T14:03:38.967Z,46.23
2022-08-28T14:06:16.807Z,46.44
2022-08-28T14:08:45.206Z,45.58
2022-08-28T14:11:13.764Z,44.72
2022-08-28T14:13:47.453Z,46.06
2022-08-28T14:16:22.966Z,45.67
2022-08-28T14:18:50.324Z,46.30
2022-08-28T14:21:16.925Z,46.60
2022-08-28T14:23:43.329Z,45.64
2022-08-28T14:26:09.748Z,46.56
2022-08-28T14:28:36.192Z,46.82
2022-08-28T14:31:06.920Z,46.41
2022-08-28T14:33:36.844Z,46.54
2022-08-28T14:36:03.635Z,46.29
2022-08-28T14:38:30.475Z,45.91
2022-08-28T14:40:56.998Z,45.64
2022-08-28T14:43:24.082Z,44.97
2022-08-28T14:45:50.859Z,45.57
2022-08-28T14:48:18.836Z,45.05
2022-08-28T14:50:49.153Z,44.81
2022-08-28T14:53:17.027Z,45.37
2022-08-28T14:55:46.725Z,46.25
2022-08-28T14:58:14.595Z,46.23
2022-08-28T15:00:43.483Z,46.64
2022-08-28T15:03:12.015Z,45.55
2022-08-28T15:05:38.637Z,45.77
2022-08-28T15:08:10.565Z,45.45
2022-08-28T15:10:39.037Z,45.13
2022-08-28T15:13:06.094Z,45.22
2022-08-28T15:15:35.744Z,45.08
2022-08-28T15:18:02.148Z,45.29
2022-08-28T15:20:28.604Z,44.85
2022-08-28T15:22:55.045Z,44.28
2022-08-28T15:25:21.550Z,44.49
2022-08-28T15:27:47.976Z,43.37
2022-08-28T15:30:14.463Z,43.06
2022-08-28T15:32:42.899Z,42.78
2022-08-28T15:35:10.861Z,42.22
2022-08-28T15:37:37.249Z,41.43
2022-08-28T15:40:23.325Z,41.47
2022-08-28T15:42:49.839Z,42.40
2022-08-28T15:45:16.829Z,41.70
2022-08-28T15:47:43.990Z,40.77
2022-08-28T15:50:11.292Z,41.58
2022-08-28T15:52:37.971Z,41.19
2022-08-28T15:55:06.215Z,40.54
2022-08-28T15:57:32.994Z,40.80
2022-08-28T15:59:59.862Z,40.42
2022-08-28T16:02:26.899Z,40.22
2022-08-28T16:04:53.790Z,40.70
2022-08-28T16:07:22.134Z,39.88
2022-08-28T16:09:49.166Z,39.42
2022-08-28T16:12:15.658Z,38.73
2022-08-28T16:14:42.207Z,38.86
2022-08-28T16:17:10.649Z,38.75
2022-08-28T16:19:39.742Z,38.56
2022-08-28T16:22:06.783Z,38.88
2022-08-28T16:24:33.612Z,39.03
2022-08-28T16:27:00.071Z,38.74
2022-08-28T16:29:26.572Z,39.23
2022-08-28T16:31:53.101Z,39.10
2022-08-28T16:34:20.272Z,41.31
2022-08-28T16:36:48.207Z,39.07
2022-08-28T16:39:15.038Z,39.13
2022-08-28T16:41:42.113Z,39.38
2022-08-28T16:44:09.046Z,40.15
2022-08-28T16:46:35.641Z,39.58
2022-08-28T16:49:02.651Z,39.17
2022-08-28T16:51:29.674Z,39.25
2022-08-28T16:53:56.437Z,39.49
2022-08-28T16:56:26.518Z,39.59
2022-08-28T16:58:53.356Z,39.23
2022-08-28T17:01:23.897Z,39.61
2022-08-28T17:03:54.583Z,39.50
2022-08-28T17:06:24.546Z,39.74
2022-08-28T17:08:56.423Z,39.71
2022-08-28T17:11:24.396Z,39.33
2022-08-28T17:13:50.838Z,39.43
2022-08-28T17:16:18.760Z,39.85
2022-08-28T17:18:48.141Z,39.85
2022-08-28T17:21:50.849Z,40.13
2022-08-28T17:24:17.593Z,39.30
2022-08-28T17:26:44.462Z,39.79
2022-08-28T17:29:11.327Z,40.04
2022-08-28T17:31:38.123Z,40.09
2022-08-28T17:34:07.118Z,40.11
2022-08-28T17:36:34.433Z,40.44
2022-08-28T17:39:06.735Z,40.39
2022-08-28T17:41:33.791Z,40.23
2022-08-28T17:44:01.189Z,40.53
2022-08-28T17:46:27.769Z,40.69
2022-08-28T17:48:55.610Z,40.66
2022-08-28T17:51:33.830Z,40.76
2022-08-28T17:54:10.771Z,40.37
2022-08-28T17:56:37.282Z,41.27
2022-08-28T17:59:04.308Z,41.11
2022-08-28T18:01:30.766Z,41.30
2022-08-28T18:03:57.287Z,41.53
2022-08-28T18:06:23.954Z,41.95
2022-08-28T18:08:51.780Z,42.27
2022-08-28T18:11:19.122Z,42.68
2022-08-28T18:13:46.183Z,42.78
2022-08-28T18:16:12.855Z,43.14
2022-08-28T18:18:39.285Z,43.03
2022-08-28T18:21:05.923Z,42.75
2022-08-28T18:23:32.397Z,43.39
2022-08-28T18:25:59.620Z,43.00
2022-08-28T18:28:26.565Z,43.78
2022-08-28T18:30:53.732Z,43.98
2022-08-28T18:33:23.262Z,44.89
2022-08-28T18:35:51.225Z,45.04
2022-08-28T18:38:18.873Z,45.12
2022-08-28T18:40:46.546Z,44.66
2022-08-28T18:43:13.776Z,43.78
2022-08-28T18:45:40.524Z,43.57
2022-08-28T18:48:10.245Z,43.61
2022-08-28T18:50:37.016Z,43.11
2022-08-28T18:53:04.360Z,43.23
2022-08-28T18:55:32.164Z,43.12
2022-08-28T18:58:00.044Z,43.03
2022-08-28T19:00:27.286Z,42.73
2022-08-28T19:02:54.278Z,43.17
2022-08-28T19:05:21.183Z,43.01
2022-08-28T19:07:48.397Z,43.24
2022-08-28T19:10:32.686Z,43.49
2022-08-28T19:13:00.856Z,43.73
2022-08-28T19:15:28.144Z,44.39
2022-08-28T19:17:54.599Z,43.60
2022-08-28T19:20:21.235Z,43.77
2022-08-28T19:22:48.771Z,44.00
2022-08-28T19:25:27.841Z,43.60
2022-08-28T19:27:59.106Z,43.67
2022-08-28T19:30:27.544Z,43.42
2022-08-28T19:32:53.976Z,43.94
2022-08-28T19:35:20.827Z,44.17
2022-08-28T19:37:51.188Z,43.79
2022-08-28T19:40:17.667Z,43.86
2022-08-28T19:42:44.199Z,45.34
2022-08-28T19:45:13.012Z,45.58
2022-08-28T19:47:40.065Z,46.35
2022-08-28T19:50:08.830Z,46.87
2022-08-28T19:52:36.433Z,47.59
2022-08-28T19:55:05.877Z,48.52
2022-08-28T19:57:33.096Z,47.47
2022-08-28T20:00:00.041Z,48.76
2022-08-28T20:02:27.212Z,49.06
2022-08-28T20:04:54.454Z,47.84
2022-08-28T20:07:20.944Z,47.54
2022-08-28T20:09:47.399Z,47.23
2022-08-28T20:12:14.591Z,48.26
2022-08-28T20:14:42.510Z,49.91
2022-08-28T20:17:09.461Z,49.22
2022-08-28T20:19:36.014Z,49.30
2022-08-28T20:22:03.751Z,50.62
2022-08-28T20:24:30.215Z,49.77
2022-08-28T20:26:56.620Z,50.37
2022-08-28T20:29:24.070Z,49.74
2022-08-28T20:31:50.734Z,48.80
2022-08-28T20:34:19.193Z,48.95
2022-08-28T20:36:45.801Z,48.97
2022-08-28T20:39:12.450Z,48.87
2022-08-28T20:41:40.335Z,48.47
2022-08-28T20:44:09.198Z,48.57
2022-08-28T20:46:40.459Z,50.20
2022-08-28T20:49:12.218Z,49.75
2022-08-28T20:51:52.651Z,50.20
2022-08-28T20:54:24.518Z,50.08
2022-08-28T20:56:52.203Z,49.98
2022-08-28T20:59:20.182Z,50.10
2022-08-28T21:01:48.670Z,50.20
2022-08-28T21:04:15.129Z,50.16
2022-08-28T21:06:41.647Z,51.47
2022-08-28T21:09:08.142Z,51.01
2022-08-28T21:11:34.544Z,51.55
2022-08-28T21:14:01.006Z,52.14
2022-08-28T21:16:27.594Z,52.89
2022-08-28T21:19:14.474Z,53.31
2022-08-28T21:21:41.512Z,53.64
2022-08-28T21:24:10.904Z,53.92
2022-08-28T21:26:40.071Z,54.61
2022-08-28T21:29:09.671Z,54.99
2022-08-28T21:31:36.327Z,55.97
2022-08-28T21:34:02.821Z,56.47
2022-08-28T21:36:29.293Z,56.74
2022-08-28T21:38:57.504Z,57.21
2022-08-28T21:41:24.449Z,57.28
2022-08-28T21:43:50.853Z,58.19
2022-08-28T21:46:17.383Z,57.73
2022-08-28T21:48:48.372Z,56.74
2022-08-28T21:51:16.820Z,56.67
2022-08-28T21:53:44.617Z,56.54
2022-08-28T21:56:11.390Z,56.43
2022-08-28T21:58:41.138Z,56.63
2022-08-28T22:01:14.882Z,57.22
2022-08-28T22:03:42.427Z,57.06
2022-08-28T22:06:13.739Z,58.49
2022-08-28T22:08:41.132Z,58.79
2022-08-28T22:11:08.752Z,59.77
2022-08-28T22:13:36.165Z,59.80
2022-08-28T22:16:03.541Z,59.72
2022-08-28T22:18:32.140Z,61.14
2022-08-28T22:21:19.357Z,60.72
2022-08-28T22:23:46.598Z,60.87
2022-08-28T22:26:16.721Z,61.99
2022-08-28T22:28:43.345Z,62.35
2022-08-28T22:31:10.122Z,61.78
2022-08-28T22:33:37.807Z,62.02
2022-08-28T22:36:04.935Z,63.04
2022-08-28T22:38:31.475Z,62.95
2022-08-28T22:40:58.033Z,62.55
2022-08-28T22:43:24.484Z,63.06
2022-08-28T22:45:50.991Z,63.32
2022-08-28T22:48:18.172Z,64.27
2022-08-28T22:50:47.191Z,62.69
2022-08-28T22:53:15.592Z,63.37
2022-08-28T22:55:43.604Z,64.12
2022-08-28T22:58:10.963Z,64.16
2022-08-28T23:00:39.318Z,64.95
2022-08-28T23:03:05.890Z,65.38
2022-08-28T23:05:32.747Z,65.51
2022-08-28T23:07:59.219Z,65.97
2022-08-28T23:10:48.249Z,65.77
2022-08-28T23:13:13.479Z,66.44
2022-08-28T23:15:41.344Z,66.77
2022-08-28T23:18:07.779Z,66.52
2022-08-28T23:20:34.786Z,67.67
2022-08-28T23:23:01.897Z,67.50
2022-08-28T23:25:28.367Z,67.33
2022-08-28T23:27:55.905Z,68.00
2022-08-28T23:30:23.381Z,68.08
2022-08-28T23:32:49.793Z,67.95
2022-08-28T23:35:17.839Z,68.48
2022-08-28T23:37:48.752Z,68.02
2022-08-28T23:40:22.222Z,68.28
2022-08-28T23:42:49.046Z,68.27
2022-08-28T23:45:17.635Z,68.92
2022-08-28T23:47:45.014Z,69.07
2022-08-28T23:50:16.361Z,68.97
2022-08-28T23:52:43.193Z,69.21
2022-08-28T23:55:12.064Z,69.40
2022-08-28T23:57:38.757Z,68.89
